Forside
METAR-TAF:

METAR-TAF

Lufthavne :

Kuwait City, Kuwait

Breddekreds: 29-13N, længdekreds: 047-59E, højde: 55 m

Aktuelle vejr

Denne rapport blev lavet for 1 time og 3 minutter siden, kl. 12:00 UTC
Vind 20 kt fra nord
Temperatur 43°C
Fugtighed 9%
Tryk 1001 hPa
Sigt: 3000 m
skyfri
blæsende støv

METAR: OKBK 221200Z 35020KT 3000 BLDU SKC 43/04 Q1001 NOSIG

Tid: 16:03 (13:03 UTC)

Vejrudsigter

Denne rapport blev lavet for 2 timer og 18 minutter siden, kl. 10:45 UTC
Foreløbig gælder fra 22 på 12 UTC til 23 på 18 UTC
Vind 15 kt fra nordvest med vindstød på up til 30 kt
Sigt: 6000 m
skyfri
Midlertidig
fra 22 på 12 UTC til 22 på 18 UTC
Sigt: 1200 m
blæsende støv

TAF: OKBK 221045Z 2212/2318 32015G30KT 6000 SKC TEMPO 2212/2218 1200 BLDU

Vejrobservationer og prognoser fra mere end 4000 lufthavne (METAR og TAF).

De gule og røde prikker repræsenterer de meteorologiske stationer.

Flyt musen over at se navnet på stationen.

Så klik over at se vejr observationer og prognoser.

At skifte det kort: Klik på de grønne knapper med et sort kors for at zoome ind; på den grønne knap med en bindestreg for at zoome ud; eller på de grønne pile for tilstødende kort.


METAR-TAF: